Time;durP1;ratioP1;P1;durP2;ratioP2;P2;SDS_P1;SDS_P2;PMS_P1;PMS_P2;Temp;Humidity;BMP_temperature;BMP_pressure;BME280_temperature;BME280_humidity;BME280_pressure;Samples;Min_cycle;Max_cycle;Signal;HPM_P1;HPM_P2
2023/12/01 00:00:37;;;;;;;79.90;41.10;;;;;;;-0.80;100.00;99893.72;10130652;29;20040;-84
2023/12/01 00:05:37;;;;;;;73.53;40.73;;;;;;;-0.73;100.00;99889.94;10162725;29;20156;-84
2023/12/01 00:10:38;;;;;;;67.20;37.55;;;;;;;-0.77;100.00;99882.00;10163255;29;20130;-84
2023/12/01 00:15:38;;;;;;;82.78;43.97;;;;;;;-0.93;100.00;99900.47;10163031;29;20072;-84
2023/12/01 00:20:39;;;;;;;78.38;37.90;;;;;;;-1.06;100.00;99893.50;10146463;29;20150;-84
2023/12/01 00:25:39;;;;;;;78.47;38.70;;;;;;;-1.12;100.00;99911.00;10146928;29;20087;-82
2023/12/01 00:30:40;;;;;;;69.07;39.80;;;;;;;-1.22;100.00;99908.47;10145614;29;20167;-85
2023/12/01 00:35:40;;;;;;;57.73;32.43;;;;;;;-1.23;100.00;99919.53;10162089;29;20068;-85
2023/12/01 00:40:41;;;;;;;91.17;46.47;;;;;;;-1.35;100.00;99925.47;10161820;29;20040;-84
2023/12/01 00:45:41;;;;;;;85.50;42.17;;;;;;;-1.44;100.00;99936.66;10147002;29;20392;-85
2023/12/01 00:50:42;;;;;;;88.70;41.63;;;;;;;-1.36;100.00;99949.34;10132667;29;20048;-84
2023/12/01 00:55:42;;;;;;;92.73;45.03;;;;;;;-1.34;100.00;99957.16;10167118;29;20400;-84
2023/12/01 01:00:43;;;;;;;93.53;44.20;;;;;;;-1.44;100.00;99959.75;10159271;29;20046;-85
2023/12/01 01:05:43;;;;;;;84.32;46.40;;;;;;;-1.51;100.00;99968.66;10161238;29;20703;-84
2023/12/01 01:10:44;;;;;;;99.63;47.70;;;;;;;-1.52;100.00;99960.03;10132270;29;20119;-84
2023/12/01 01:15:44;;;;;;;96.77;48.37;;;;;;;-1.29;100.00;99980.66;10144243;29;20102;-83
2023/12/01 01:20:45;;;;;;;99.93;52.93;;;;;;;-1.35;100.00;99976.81;10144604;29;20079;-84
2023/12/01 01:25:45;;;;;;;100.10;43.70;;;;;;;-1.42;100.00;99976.19;10139069;29;20499;-84
2023/12/01 01:30:46;;;;;;;93.67;46.03;;;;;;;-1.31;100.00;99979.63;10177606;29;20048;-84
2023/12/01 01:35:46;;;;;;;84.63;48.37;;;;;;;-1.28;100.00;99977.31;10127143;29;20074;-84
2023/12/01 01:40:47;;;;;;;102.03;53.70;;;;;;;-1.22;100.00;99976.13;10159634;29;20123;-85
2023/12/01 01:46:05;;;;;;;121.97;57.33;;;;;;;-1.24;100.00;99987.94;10141147;29;20127;-84
2023/12/01 01:51:08;;;;;;;107.35;55.03;;;;;;;-1.23;100.00;99982.03;10159441;29;20131;-85
2023/12/01 01:56:11;;;;;;;119.00;55.05;;;;;;;-1.22;100.00;99991.53;10169015;29;20039;-85
2023/12/01 02:01:12;;;;;;;98.75;49.97;;;;;;;-1.24;100.00;99995.63;10145905;29;20048;-85
2023/12/01 02:06:12;;;;;;;80.77;45.57;;;;;;;-1.33;100.00;99988.09;10157952;29;20044;-85
2023/12/01 02:11:13;;;;;;;100.83;48.73;;;;;;;-1.41;100.00;99993.38;10161772;29;20054;-85
2023/12/01 02:16:14;;;;;;;90.33;45.73;;;;;;;-1.46;100.00;99999.81;10139771;29;20055;-84
2023/12/01 02:21:14;;;;;;;99.57;51.60;;;;;;;-1.46;100.00;100000.72;10159476;29;20052;-84
2023/12/01 02:26:15;;;;;;;116.27;54.20;;;;;;;-1.43;100.00;100000.06;10158870;29;20036;-83
2023/12/01 02:31:15;;;;;;;112.10;52.13;;;;;;;-1.44;100.00;100006.88;10143557;29;20484;-83
2023/12/01 02:36:17;;;;;;;119.43;50.23;;;;;;;-1.50;100.00;100009.81;10159026;29;20075;-85
2023/12/01 02:41:18;;;;;;;116.88;56.47;;;;;;;-1.65;100.00;99999.22;10141838;29;20611;-84
2023/12/01 02:46:22;;;;;;;112.10;58.20;;;;;;;-1.74;100.00;100001.03;10125590;29;20107;-84
2023/12/01 02:51:24;;;;;;;132.20;63.13;;;;;;;-1.73;100.00;99997.69;10120475;29;20036;-85
2023/12/01 02:56:24;;;;;;;112.45;55.47;;;;;;;-1.57;100.00;100007.53;10142901;29;20133;-85
2023/12/01 03:01:25;;;;;;;135.83;63.37;;;;;;;-1.61;100.00;100004.59;10137894;29;20046;-84
2023/12/01 03:06:25;;;;;;;130.07;58.67;;;;;;;-1.45;100.00;100014.44;10141718;29;20036;-84
2023/12/01 03:11:26;;;;;;;127.72;65.63;;;;;;;-1.28;100.00;100016.69;10159671;29;20044;-84
2023/12/01 03:16:26;;;;;;;120.50;64.27;;;;;;;-1.31;100.00;100008.75;10138455;29;20099;-84
2023/12/01 03:21:28;;;;;;;89.63;50.47;;;;;;;-1.35;100.00;100011.84;10156004;29;20046;-82
2023/12/01 03:26:28;;;;;;;97.07;52.23;;;;;;;-1.51;100.00;100023.44;10168027;29;20044;-82
2023/12/01 03:31:29;;;;;;;92.32;50.50;;;;;;;-1.56;100.00;100019.59;10167855;29;20127;-85
2023/12/01 03:36:29;;;;;;;87.88;51.90;;;;;;;-1.55;100.00;100016.25;10143677;29;20079;-85
2023/12/01 03:41:30;;;;;;;84.73;46.63;;;;;;;-1.58;100.00;100017.69;10164350;29;20063;-84
2023/12/01 03:46:30;;;;;;;84.23;47.33;;;;;;;-1.61;100.00;100015.75;10148887;29;20199;-83
2023/12/01 03:51:31;;;;;;;62.30;35.70;;;;;;;-1.75;100.00;100008.56;10130360;29;20139;-85
2023/12/01 03:56:31;;;;;;;67.77;39.60;;;;;;;-1.77;100.00;100021.28;10147301;29;20067;-85
2023/12/01 04:01:32;;;;;;;58.30;34.17;;;;;;;-1.65;100.00;100012.03;10164905;29;20075;-84
2023/12/01 04:06:32;;;;;;;76.37;45.60;;;;;;;-1.67;100.00;100013.59;10162168;29;20044;-85
2023/12/01 04:11:33;;;;;;;70.00;37.00;;;;;;;-1.79;100.00;100020.25;10134159;29;20080;-85
2023/12/01 04:16:34;;;;;;;68.40;41.73;;;;;;;-1.81;100.00;100038.09;10163108;29;20135;-84
2023/12/01 04:21:34;;;;;;;74.17;43.53;;;;;;;-1.88;100.00;100045.16;10167090;29;20048;-84
2023/12/01 04:26:35;;;;;;;72.63;48.67;;;;;;;-1.92;100.00;100044.91;10162448;29;20127;-85
2023/12/01 04:31:35;;;;;;;74.43;46.17;;;;;;;-1.89;100.00;100053.63;10162620;29;20535;-84
2023/12/01 04:36:39;;;;;;;82.13;43.03;;;;;;;-1.85;100.00;100064.25;10158616;29;20045;-84
2023/12/01 04:41:43;;;;;;;78.95;43.17;;;;;;;-1.78;100.00;100065.69;10133874;29;20048;-85
2023/12/01 04:46:43;;;;;;;89.57;48.57;;;;;;;-1.71;100.00;100067.06;10155031;29;20054;-84
2023/12/01 04:51:44;;;;;;;85.47;47.40;;;;;;;-1.64;100.00;100064.25;10115583;29;20036;-84
2023/12/01 04:56:44;;;;;;;76.13;48.53;;;;;;;-1.53;100.00;100076.31;10132308;29;20076;-85
2023/12/01 05:01:45;;;;;;;87.87;46.30;;;;;;;-1.56;100.00;100065.78;10163238;29;20455;-84
2023/12/01 05:06:45;;;;;;;71.13;44.00;;;;;;;-1.60;100.00;100067.97;10163589;29;20040;-85
2023/12/01 05:11:46;;;;;;;81.27;44.83;;;;;;;-1.73;100.00;100074.66;10162969;29;20043;-85
2023/12/01 05:16:47;;;;;;;84.00;46.23;;;;;;;-1.83;100.00;100080.66;10159292;29;20480;-85
2023/12/01 05:21:47;;;;;;;79.53;42.47;;;;;;;-1.82;100.00;100090.16;10160646;29;20385;-84
2023/12/01 05:26:48;;;;;;;83.93;42.87;;;;;;;-1.72;100.00;100098.63;10156350;29;20115;-84
2023/12/01 05:31:48;;;;;;;75.63;46.40;;;;;;;-1.64;100.00;100100.16;10152593;29;20120;-85
2023/12/01 05:36:50;;;;;;;78.40;42.60;;;;;;;-1.66;100.00;100100.06;10156287;29;20135;-84
2023/12/01 05:41:50;;;;;;;80.78;43.70;;;;;;;-1.71;100.00;100108.13;10157753;29;20092;-84
2023/12/01 05:46:51;;;;;;;70.90;40.37;;;;;;;-1.52;100.00;100113.16;10159174;29;20087;-83
2023/12/01 05:51:52;;;;;;;76.13;43.13;;;;;;;-1.46;100.00;100117.88;10160099;29;20174;-85
2023/12/01 05:56:55;;;;;;;68.73;41.43;;;;;;;-1.26;100.00;100116.97;10170551;29;20428;-82
2023/12/01 06:01:57;;;;;;;77.10;41.50;;;;;;;-1.35;100.00;100117.09;10142983;29;20037;-85
2023/12/01 06:06:57;;;;;;;;;;;;;;;-1.34;100.00;100126.59;10162365;29;20099;-90
2023/12/01 06:11:57;;;;;;;86.25;43.45;;;;;;;-1.36;100.00;100121.34;10156209;29;20022;-90
2023/12/01 06:17:04;;;;;;;64.95;36.95;;;;;;;-1.44;100.00;100131.75;10142984;29;20122;-86
2023/12/01 06:22:05;;;;;;;70.80;39.20;;;;;;;-1.23;100.00;100125.81;10139655;29;20051;-88
2023/12/01 06:27:05;;;;;;;62.37;35.73;;;;;;;-1.30;100.00;100123.53;10140839;29;20504;-88
2023/12/01 06:32:06;;;;;;;65.70;37.95;;;;;;;-1.28;100.00;100121.97;10158109;29;20091;-89
2023/12/01 06:37:06;;;;;;;43.13;25.20;;;;;;;-1.16;100.00;100128.91;10151871;29;20048;-90
2023/12/01 06:42:08;;;;;;;53.53;33.37;;;;;;;-1.18;100.00;100128.78;10155349;29;20126;-90
2023/12/01 06:47:09;;;;;;;71.07;38.65;;;;;;;-1.29;100.00;100138.16;10151152;29;20046;-91
2023/12/01 06:52:12;;;;;;;70.90;37.43;;;;;;;-1.23;100.00;100135.22;10158113;29;20510;-90
2023/12/01 06:57:12;;;;;;;72.93;36.17;;;;;;;-1.14;100.00;100142.75;10146726;29;20036;-90
2023/12/01 07:02:17;;;;;;;69.17;38.77;;;;;;;-1.07;100.00;100151.13;10165132;29;20135;-90
2023/12/01 07:07:18;;;;;;;65.75;37.05;;;;;;;-1.09;100.00;100144.94;10155254;29;20048;-91
2023/12/01 07:12:18;;;;;;;60.77;37.23;;;;;;;-1.20;100.00;100153.44;10152883;29;20119;-90
2023/12/01 07:17:20;;;;;;;65.57;37.17;;;;;;;-1.09;100.00;100165.50;10150931;29;20448;-92
2023/12/01 07:22:22;;;;;;;;;;;;;;;-1.14;100.00;100174.50;10137856;29;20056;-91
2023/12/01 07:27:25;;;;;;;60.55;33.40;;;;;;;-1.28;100.00;100167.31;10152294;29;19979;-90
2023/12/01 07:32:25;;;;;;;59.85;37.38;;;;;;;-1.14;100.00;100171.00;10153992;29;21888;-90
2023/12/01 07:37:26;;;;;;;56.30;32.37;;;;;;;-1.15;100.00;100162.44;10164427;29;20262;-92
2023/12/01 07:42:26;;;;;;;52.27;32.73;;;;;;;-1.16;100.00;100169.97;10159640;29;20527;-92
2023/12/01 07:47:27;;;;;;;46.33;31.85;;;;;;;-1.30;100.00;100159.47;10121188;29;20042;-86
2023/12/01 07:52:27;;;;;;;57.47;35.80;;;;;;;-1.29;100.00;100168.97;10151016;29;20076;-85
2023/12/01 07:57:28;;;;;;;54.33;32.83;;;;;;;-1.29;100.00;100175.78;10143183;29;20397;-89
2023/12/01 08:02:29;;;;;;;62.00;36.73;;;;;;;-1.09;100.00;100183.47;10141032;29;20482;-90
2023/12/01 08:07:29;;;;;;;60.23;32.40;;;;;;;-1.12;100.00;100187.44;10155823;29;20048;-86
2023/12/01 08:12:29;;;;;;;58.57;31.13;;;;;;;-1.15;100.00;100184.63;10151786;29;20117;-83
2023/12/01 08:17:30;;;;;;;51.67;31.83;;;;;;;-1.14;100.00;100184.78;10131444;29;20127;-84
2023/12/01 08:22:33;;;;;;;68.97;36.67;;;;;;;-1.05;100.00;100194.91;10140513;29;20058;-86
2023/12/01 08:27:34;;;;;;;56.05;33.22;;;;;;;-1.00;100.00;100192.72;10150728;29;20131;-86
2023/12/01 08:32:34;;;;;;;67.38;32.13;;;;;;;-0.99;100.00;100200.53;10162762;29;20040;-85
2023/12/01 08:37:35;;;;;;;58.83;34.87;;;;;;;-0.81;100.00;100200.25;10139565;29;20044;-87
2023/12/01 08:42:35;;;;;;;53.00;29.20;;;;;;;-0.73;100.00;100196.66;10144190;29;20138;-87
2023/12/01 08:47:37;;;;;;;55.97;33.23;;;;;;;-0.70;100.00;100208.88;10155771;29;20087;-87
2023/12/01 08:52:38;;;;;;;57.65;34.00;;;;;;;-0.64;100.00;100204.22;10144975;29;20095;-88
2023/12/01 08:57:39;;;;;;;53.88;26.10;;;;;;;-0.62;100.00;100212.97;10162121;29;20051;-90
2023/12/01 09:02:39;;;;;;;35.75;20.48;;;;;;;-0.68;100.00;100220.16;10165613;29;20135;-85
2023/12/01 09:07:40;;;;;;;48.40;26.38;;;;;;;-0.58;100.00;100219.22;10128146;29;20442;-83
2023/12/01 09:12:41;;;;;;;44.40;26.43;;;;;;;-0.44;100.00;100226.41;10124584;29;20442;-85
2023/12/01 09:17:42;;;;;;;50.70;32.27;;;;;;;-0.34;100.00;100228.06;10115122;29;20052;-84
2023/12/01 09:22:43;;;;;;;44.65;27.15;;;;;;;-0.37;100.00;100236.41;10158309;29;20427;-86
2023/12/01 09:27:43;;;;;;;43.73;27.70;;;;;;;-0.28;100.00;100233.69;10124714;29;20055;-87
2023/12/01 09:32:44;;;;;;;45.38;28.30;;;;;;;-0.28;100.00;100235.34;10143589;29;20202;-90
2023/12/01 09:37:44;;;;;;;46.13;26.10;;;;;;;-0.26;100.00;100242.44;10146265;29;20044;-91
2023/12/01 09:42:45;;;;;;;44.60;27.10;;;;;;;-0.16;100.00;100244.06;10155911;29;20067;-90
2023/12/01 09:47:51;;;;;;;46.17;28.30;;;;;;;-0.06;100.00;100248.28;10107576;29;20037;-88
2023/12/01 09:52:52;;;;;;;43.83;27.05;;;;;;;0.06;100.00;100251.84;10105886;29;20059;-90
2023/12/01 09:57:53;;;;;;;47.67;30.27;;;;;;;-0.04;100.00;100254.44;10122816;29;20100;-90
2023/12/01 10:02:53;;;;;;;50.30;33.30;;;;;;;0.08;100.00;100251.94;10105872;29;20123;-91
2023/12/01 10:07:54;;;;;;;48.63;28.30;;;;;;;0.08;100.00;100252.84;10123317;29;20044;-89
2023/12/01 10:13:04;;;;;;;41.47;22.83;;;;;;;0.09;100.00;100251.16;10121037;29;20124;-88
2023/12/01 10:18:11;;;;;;;41.90;25.73;;;;;;;-0.05;100.00;100262.94;10107112;29;20037;-89
2023/12/01 10:23:16;;;;;;;44.58;24.92;;;;;;;-0.01;100.00;100262.41;10160572;29;20488;-90
2023/12/01 10:28:20;;;;;;;40.13;22.25;;;;;;;0.09;100.00;100264.94;10158154;29;20516;-91
2023/12/01 10:33:21;;;;;;;52.83;27.85;;;;;;;0.08;100.00;100267.38;10139156;29;20099;-86
2023/12/01 10:38:21;;;;;;;41.97;25.10;;;;;;;0.23;100.00;100263.44;10152260;29;20044;-86
2023/12/01 10:43:22;;;;;;;40.28;25.27;;;;;;;0.28;100.00;100271.56;10152579;29;20280;-85
2023/12/01 10:48:23;;;;;;;37.50;27.40;;;;;;;0.26;100.00;100262.81;10124314;29;20045;-83
2023/12/01 10:53:26;;;;;;;37.35;24.52;;;;;;;0.35;100.00;100271.25;10141715;29;20055;-85
2023/12/01 10:58:27;;;;;;;42.03;24.55;;;;;;;0.35;100.00;100270.34;10151024;29;20123;-85
2023/12/01 11:03:29;;;;;;;35.97;25.65;;;;;;;0.25;100.00;100263.59;10112064;29;20553;-82
2023/12/01 11:08:51;;;;;;;35.75;23.67;;;;;;;0.21;100.00;100256.41;10135216;29;20378;-84
2023/12/01 11:13:52;;;;;;;;;;;;;;;0.25;100.00;100258.44;10118434;29;20044;-84
2023/12/01 11:18:54;;;;;;;38.00;25.35;;;;;;;0.33;100.00;100259.03;10122060;29;19994;-85
2023/12/01 11:23:55;;;;;;;36.65;24.67;;;;;;;0.12;100.00;100251.41;10158061;29;20412;-84
2023/12/01 11:29:09;;;;;;;44.13;26.10;;;;;;;0.12;100.00;100262.63;10157605;29;20127;-84
2023/12/01 11:34:12;;;;;;;37.83;25.85;;;;;;;-0.05;100.00;100268.09;10156337;29;20139;-85
2023/12/01 11:44:29;;;;;;;44.20;24.77;;;;;;;-0.14;100.00;100278.53;10145508;29;20080;-84
2023/12/01 11:49:31;;;;;;;39.80;28.25;;;;;;;-0.26;100.00;100274.97;10113627;29;20052;-85
2023/12/01 11:54:35;;;;;;;43.08;27.23;;;;;;;-0.28;100.00;100280.00;10119569;29;20052;-85
2023/12/01 11:59:36;;;;;;;46.25;27.17;;;;;;;-0.29;100.00;100270.47;10164855;29;20044;-85
2023/12/01 12:04:37;;;;;;;40.63;22.35;;;;;;;-0.42;100.00;100278.84;10135879;29;20037;-84
2023/12/01 12:09:38;;;;;;;51.37;29.80;;;;;;;-0.57;100.00;100277.59;10111428;29;20040;-84
2023/12/01 12:14:40;;;;;;;47.72;28.23;;;;;;;-0.52;100.00;100284.91;10157925;29;20363;-83
2023/12/01 12:19:44;;;;;;;51.17;32.25;;;;;;;-0.32;100.00;100280.50;10159243;29;20091;-83
2023/12/01 12:24:46;;;;;;;50.05;32.60;;;;;;;-0.31;100.00;100288.34;10159476;29;20059;-84
2023/12/01 12:29:46;;;;;;;46.30;28.10;;;;;;;-0.31;100.00;100297.75;10156686;29;20464;-84
2023/12/01 12:34:47;;;;;;;46.35;27.85;;;;;;;-0.32;100.00;100304.53;10157457;29;20075;-85
2023/12/01 12:39:50;;;;;;;49.95;29.83;;;;;;;-0.47;100.00;100314.47;10155002;29;20253;-85
2023/12/01 12:44:50;;;;;;;44.22;28.80;;;;;;;-0.46;100.00;100310.22;10136030;29;20040;-84
2023/12/01 12:49:53;;;;;;;46.33;27.80;;;;;;;-0.41;100.00;100311.50;10158588;29;20127;-84
2023/12/01 12:54:53;;;;;;;43.65;27.55;;;;;;;-0.40;100.00;100305.59;10156750;29;20436;-85
2023/12/01 12:59:54;;;;;;;35.40;24.58;;;;;;;-0.37;100.00;100316.13;10136862;29;20138;-82
2023/12/01 13:04:55;;;;;;;36.78;22.45;;;;;;;-0.40;100.00;100317.56;10179529;29;20052;-83
2023/12/01 13:09:56;;;;;;;30.03;19.93;;;;;;;-0.47;100.00;100317.06;10163526;29;20183;-85
2023/12/01 13:14:56;;;;;;;34.20;20.60;;;;;;;-0.49;100.00;100317.69;10163403;29;20052;-83
2023/12/01 13:19:57;;;;;;;36.03;25.70;;;;;;;-0.63;100.00;100329.41;10141452;29;20323;-87
2023/12/01 13:24:57;;;;;;;40.55;21.00;;;;;;;-0.67;100.00;100323.09;10150784;29;20064;-84
2023/12/01 13:29:58;;;;;;;38.43;23.17;;;;;;;-0.68;100.00;100331.56;10142121;29;20046;-84
2023/12/01 13:34:59;;;;;;;40.13;24.40;;;;;;;-0.72;100.00;100323.50;10149980;29;20036;-83
2023/12/01 13:40:00;;;;;;;49.72;25.83;;;;;;;-0.70;100.00;100327.09;10154276;29;20052;-83
2023/12/01 13:45:01;;;;;;;45.10;23.93;;;;;;;-0.66;100.00;100319.75;10155439;29;20044;-83
2023/12/01 13:50:02;;;;;;;29.30;17.77;;;;;;;-0.52;100.00;100313.19;10157839;29;20088;-84
2023/12/01 13:55:04;;;;;;;37.42;21.80;;;;;;;-0.43;100.00;100314.75;10157659;29;20392;-84
2023/12/01 14:00:06;;;;;;;35.20;21.65;;;;;;;-0.50;100.00;100311.66;10139552;29;20063;-84
2023/12/01 14:05:07;;;;;;;34.95;21.40;;;;;;;-0.45;100.00;100304.31;10143822;29;20188;-89
2023/12/01 14:10:11;;;;;;;33.60;19.83;;;;;;;-0.37;100.00;100310.97;10122449;29;20455;-88
2023/12/01 14:15:11;;;;;;;37.97;22.55;;;;;;;-0.43;100.00;100307.03;10137756;29;20056;-85
2023/12/01 14:20:12;;;;;;;29.80;18.75;;;;;;;-0.43;100.00;100310.47;10155726;29;20492;-85
2023/12/01 14:25:13;;;;;;;32.30;18.67;;;;;;;-0.41;100.00;100319.22;10133457;29;20047;-87
2023/12/01 14:30:13;;;;;;;34.43;19.73;;;;;;;-0.54;100.00;100325.03;10159038;29;20131;-88
2023/12/01 14:35:14;;;;;;;33.85;21.20;;;;;;;-0.60;100.00;100330.53;10155935;29;20082;-85
2023/12/01 14:40:15;;;;;;;36.55;21.45;;;;;;;-0.66;100.00;100335.16;10125473;29;20071;-86
2023/12/01 14:45:15;;;;;;;37.50;21.37;;;;;;;-0.73;100.00;100343.13;10159573;29;20043;-83
2023/12/01 14:50:16;;;;;;;33.90;19.70;;;;;;;-0.90;100.00;100337.47;10155923;29;20067;-84
2023/12/01 14:55:16;;;;;;;28.75;15.68;;;;;;;-0.89;100.00;100335.81;10137073;29;20135;-83
2023/12/01 15:00:17;;;;;;;31.00;18.90;;;;;;;-0.89;100.00;100335.81;10154289;29;20058;-84
2023/12/01 15:05:17;;;;;;;30.43;18.27;;;;;;;-0.96;100.00;100343.78;10157361;29;20115;-86
2023/12/01 15:10:18;;;;;;;35.60;17.27;;;;;;;-1.10;100.00;100352.84;10156565;29;20119;-84
2023/12/01 15:15:19;;;;;;;31.05;19.70;;;;;;;-1.16;100.00;100358.38;10142801;29;20071;-85
2023/12/01 15:20:20;;;;;;;31.33;16.53;;;;;;;-1.24;100.00;100359.38;10152026;29;20058;-81
2023/12/01 15:25:20;;;;;;;28.45;16.48;;;;;;;-1.31;100.00;100362.19;10159232;29;20042;-84
2023/12/01 15:30:21;;;;;;;29.30;15.50;;;;;;;-1.42;100.00;100368.94;10158288;29;20826;-84
2023/12/01 15:35:21;;;;;;;26.80;16.10;;;;;;;-1.55;100.00;100367.00;10165824;29;20119;-84
2023/12/01 15:40:22;;;;;;;32.00;17.43;;;;;;;-1.66;100.00;100373.72;10165242;29;20119;-84
2023/12/01 15:45:22;;;;;;;31.20;19.53;;;;;;;-1.80;100.00;100377.66;10149621;29;20032;-84
2023/12/01 15:50:23;;;;;;;28.70;17.63;;;;;;;-1.85;100.00;100368.63;10165224;29;20071;-84
2023/12/01 15:55:23;;;;;;;37.67;18.37;;;;;;;-1.94;100.00;100372.19;10133595;29;20559;-84
2023/12/01 16:00:24;;;;;;;35.67;18.83;;;;;;;-2.07;100.00;100383.00;10163505;29;20040;-85
2023/12/01 16:05:24;;;;;;;36.83;20.93;;;;;;;-2.10;100.00;100386.97;10164872;29;20130;-84
2023/12/01 16:10:25;;;;;;;30.37;20.17;;;;;;;-2.10;100.00;100398.09;10162465;29;20126;-84
2023/12/01 16:15:26;;;;;;;30.20;18.87;;;;;;;-2.07;100.00;100405.19;10153559;29;20067;-85
2023/12/01 16:20:26;;;;;;;35.80;19.10;;;;;;;-2.11;100.00;100396.31;10145831;29;20047;-86
2023/12/01 16:25:27;;;;;;;31.90;17.00;;;;;;;-2.21;100.00;100398.78;10145324;29;20064;-85
2023/12/01 16:30:27;;;;;;;35.43;17.30;;;;;;;-2.22;100.00;100408.16;10148879;29;20365;-85
2023/12/01 16:35:28;;;;;;;34.33;19.17;;;;;;;-2.18;100.00;100419.59;10163264;29;20135;-84
2023/12/01 16:40:28;;;;;;;23.83;14.53;;;;;;;-2.15;100.00;100417.31;10162983;29;20135;-84
2023/12/01 16:45:29;;;;;;;32.30;18.43;;;;;;;-2.15;100.00;100421.53;10162296;29;20048;-82
2023/12/01 16:50:29;;;;;;;31.80;18.53;;;;;;;-2.15;100.00;100425.00;10145631;29;20052;-85
2023/12/01 16:55:30;;;;;;;27.50;14.60;;;;;;;-2.16;100.00;100428.31;10159023;29;20084;-84
2023/12/01 17:00:30;;;;;;;30.10;17.23;;;;;;;-2.16;100.00;100438.56;10162226;29;20051;-85
2023/12/01 17:05:31;;;;;;;36.27;21.23;;;;;;;-2.18;100.00;100432.41;10147495;29;20135;-85
2023/12/01 17:10:31;;;;;;;35.33;20.27;;;;;;;-2.22;100.00;100438.94;10143605;29;20131;-84
2023/12/01 17:15:32;;;;;;;35.77;20.43;;;;;;;-2.28;100.00;100446.06;10132941;29;20127;-83
2023/12/01 17:20:33;;;;;;;27.30;18.77;;;;;;;-2.23;100.00;100451.59;10164206;29;20475;-84
2023/12/01 17:25:33;;;;;;;34.73;16.83;;;;;;;-2.30;100.00;100450.16;10156355;29;20046;-84
2023/12/01 17:30:34;;;;;;;26.27;19.57;;;;;;;-2.39;100.00;100449.31;10112565;29;20124;-84
2023/12/01 17:35:34;;;;;;;21.03;12.53;;;;;;;-2.39;100.00;100451.88;10106593;29;20131;-84
2023/12/01 17:40:35;;;;;;;37.63;21.23;;;;;;;-2.47;100.00;100463.94;10156444;29;20147;-82
2023/12/01 17:45:35;;;;;;;30.67;18.13;;;;;;;-2.53;100.00;100466.84;10143322;29;21040;-86
2023/12/01 17:50:36;;;;;;;22.00;13.27;;;;;;;-2.60;100.00;100467.03;10144516;29;20041;-87
2023/12/01 17:55:36;;;;;;;35.73;18.60;;;;;;;-2.61;100.00;100452.44;10123207;29;20553;-89
2023/12/01 18:00:37;;;;;;;33.90;21.00;;;;;;;-2.55;100.00;100462.34;10158884;29;20052;-87
2023/12/01 18:05:38;;;;;;;27.60;15.37;;;;;;;-2.38;100.00;100461.34;10145948;29;20519;-87
2023/12/01 18:10:38;;;;;;;27.63;16.33;;;;;;;-2.33;100.00;100469.47;10118109;29;20123;-86
2023/12/01 18:15:39;;;;;;;34.30;16.47;;;;;;;-2.40;100.00;100475.69;10159881;29;20048;-87
2023/12/01 18:20:39;;;;;;;29.90;17.70;;;;;;;-2.45;100.00;100485.50;10157564;29;20134;-84
2023/12/01 18:25:40;;;;;;;39.90;19.50;;;;;;;-2.48;100.00;100486.91;10148796;29;20126;-87
2023/12/01 18:30:40;;;;;;;39.53;21.47;;;;;;;-2.42;100.00;100497.72;10158901;29;20043;-88
2023/12/01 18:35:41;;;;;;;35.23;20.80;;;;;;;-2.39;100.00;100488.63;10137041;29;20115;-86
2023/12/01 18:40:43;;;;;;;40.40;20.33;;;;;;;-2.41;100.00;100494.41;10144423;29;20127;-87
2023/12/01 18:45:43;;;;;;;33.97;19.55;;;;;;;-2.52;100.00;100496.84;10114165;29;20433;-88
2023/12/01 18:50:44;;;;;;;31.80;19.07;;;;;;;-2.44;100.00;100504.38;10141937;29;20131;-88
2023/12/01 18:55:45;;;;;;;33.03;19.67;;;;;;;-2.56;100.00;100510.13;10140236;29;20044;-86
2023/12/01 19:00:45;;;;;;;34.80;18.73;;;;;;;-2.55;100.00;100501.69;10157504;29;20083;-83
2023/12/01 19:05:46;;;;;;;35.33;21.33;;;;;;;-2.57;100.00;100509.97;10145580;29;20581;-84
2023/12/01 19:10:47;;;;;;;27.97;18.77;;;;;;;-2.75;100.00;100519.41;10152911;29;20131;-83
2023/12/01 19:15:48;;;;;;;;;;;;;;;-2.83;100.00;100527.25;10152657;29;20044;-84
2023/12/01 19:20:48;;;;;;;35.47;21.52;;;;;;;-2.89;100.00;100525.75;10153926;29;20279;-83
2023/12/01 19:25:49;;;;;;;31.10;18.50;;;;;;;-2.75;100.00;100525.41;10157856;29;20654;-83
2023/12/01 19:30:50;;;;;;;31.10;16.77;;;;;;;-2.81;100.00;100525.75;10142632;29;20052;-84
2023/12/01 19:35:50;;;;;;;33.10;18.57;;;;;;;-2.85;100.00;100515.06;10147586;29;20040;-87
2023/12/01 19:40:51;;;;;;;27.70;18.73;;;;;;;-2.84;100.00;100539.91;10104277;29;20049;-83
2023/12/01 19:45:52;;;;;;;29.90;19.87;;;;;;;-2.76;100.00;100523.63;10146487;29;20123;-86
2023/12/01 19:50:53;;;;;;;31.38;17.88;;;;;;;-2.76;100.00;100533.84;10155823;29;20040;-86
2023/12/01 19:55:55;;;;;;;27.60;13.80;;;;;;;-2.72;100.00;100527.38;10158058;29;20040;-86
2023/12/01 20:00:55;;;;;;;30.13;17.90;;;;;;;-2.73;100.00;100534.16;10155032;29;20484;-85
2023/12/01 20:05:56;;;;;;;28.63;15.80;;;;;;;-2.70;100.00;100546.38;10141394;29;20048;-85
2023/12/01 20:11:03;;;;;;;27.93;17.23;;;;;;;-2.70;100.00;100546.38;10144152;29;20131;-86
2023/12/01 20:16:03;;;;;;;36.60;17.50;;;;;;;-2.76;100.00;100544.09;10135416;29;20445;-85
2023/12/01 20:21:04;;;;;;;33.73;18.77;;;;;;;-2.81;100.00;100541.13;10112169;29;20047;-84
2023/12/01 20:26:04;;;;;;;30.70;18.27;;;;;;;-2.92;100.00;100545.97;10161365;29;20047;-85
2023/12/01 20:31:05;;;;;;;34.90;20.10;;;;;;;-2.92;100.00;100538.28;10164307;29;20131;-84
2023/12/01 20:36:06;;;;;;;33.47;19.03;;;;;;;-2.92;100.00;100535.72;10147607;29;20040;-84
2023/12/01 20:41:07;;;;;;;33.53;20.97;;;;;;;-3.01;100.00;100546.88;10152963;29;20491;-86
2023/12/01 20:46:14;;;;;;;28.50;16.60;;;;;;;-3.18;100.00;100545.25;10148117;29;20036;-84
2023/12/01 20:51:15;;;;;;;32.05;20.05;;;;;;;-3.43;100.00;100548.00;10144324;29;20076;-84
2023/12/01 20:56:16;;;;;;;36.28;21.02;;;;;;;-3.50;100.00;100547.22;10135079;29;20535;-85
2023/12/01 21:01:16;;;;;;;33.67;19.00;;;;;;;-3.47;100.00;100558.69;10153321;29;20123;-83
2023/12/01 21:06:17;;;;;;;34.77;21.63;;;;;;;-3.36;100.00;100558.81;10168386;29;20123;-83
2023/12/01 21:11:17;;;;;;;34.50;20.20;;;;;;;-3.24;100.00;100554.91;10157888;29;20041;-84
2023/12/01 21:16:18;;;;;;;30.27;18.20;;;;;;;-3.18;100.00;100545.25;10158635;29;20040;-84
2023/12/01 21:21:18;;;;;;;36.33;20.33;;;;;;;-3.17;100.00;100549.63;10163083;29;20055;-82
2023/12/01 21:26:19;;;;;;;37.87;22.50;;;;;;;-3.11;100.00;100555.34;10154697;29;20044;-85
2023/12/01 21:31:20;;;;;;;39.87;23.23;;;;;;;-3.05;100.00;100556.69;10156445;29;20164;-85
2023/12/01 21:36:20;;;;;;;33.33;21.63;;;;;;;-3.05;100.00;100555.03;10140275;29;20055;-85
2023/12/01 21:41:23;;;;;;;38.33;20.30;;;;;;;-3.11;100.00;100556.97;10124791;29;20051;-85
2023/12/01 21:46:23;;;;;;;43.13;23.13;;;;;;;-3.25;100.00;100564.22;10151576;29;20471;-85
2023/12/01 21:51:24;;;;;;;45.43;26.80;;;;;;;-3.36;100.00;100569.06;10148266;29;20050;-86
2023/12/01 21:56:24;;;;;;;35.40;19.40;;;;;;;-3.43;100.00;100558.22;10157672;29;20127;-85
2023/12/01 22:01:25;;;;;;;37.77;22.57;;;;;;;-3.44;100.00;100566.66;10144123;29;20040;-85
2023/12/01 22:06:25;;;;;;;25.33;15.97;;;;;;;-3.32;100.00;100576.28;10134934;29;20055;-84
2023/12/01 22:11:26;;;;;;;24.87;15.37;;;;;;;-3.22;100.00;100579.00;10143079;29;20052;-85
2023/12/01 22:16:28;;;;;;;27.77;16.67;;;;;;;-3.18;100.00;100581.09;10146968;29;20044;-85
2023/12/01 22:21:30;;;;;;;40.13;22.05;;;;;;;-3.25;100.00;100578.69;10141569;29;20048;-84
2023/12/01 22:26:30;;;;;;;32.13;20.50;;;;;;;-3.42;100.00;100569.34;10142523;29;20481;-84